sensor_id;sensor_type;location;lat;lon;timestamp;P1;durP1;ratioP1;P2;durP2;ratioP2
7359;SDS011;3720;48.274;7.796;2023-06-04T00:02:10;7.50;;;5.55;;
7359;SDS011;3720;48.274;7.796;2023-06-04T00:04:42;10.73;;;6.10;;
7359;SDS011;3720;48.274;7.796;2023-06-04T00:07:14;11.30;;;5.82;;
7359;SDS011;3720;48.274;7.796;2023-06-04T00:09:48;7.38;;;5.80;;
7359;SDS011;3720;48.274;7.796;2023-06-04T00:12:20;9.32;;;6.00;;
7359;SDS011;3720;48.274;7.796;2023-06-04T00:14:51;7.25;;;5.63;;
7359;SDS011;3720;48.274;7.796;2023-06-04T00:17:23;9.25;;;5.97;;
7359;SDS011;3720;48.274;7.796;2023-06-04T00:19:55;10.88;;;6.00;;
7359;SDS011;3720;48.274;7.796;2023-06-04T00:22:27;8.23;;;5.93;;
7359;SDS011;3720;48.274;7.796;2023-06-04T00:25:00;9.48;;;5.68;;
7359;SDS011;3720;48.274;7.796;2023-06-04T00:27:33;8.40;;;5.93;;
7359;SDS011;3720;48.274;7.796;2023-06-04T00:30:05;13.13;;;6.50;;
7359;SDS011;3720;48.274;7.796;2023-06-04T00:32:38;10.32;;;6.38;;
7359;SDS011;3720;48.274;7.796;2023-06-04T00:35:10;15.00;;;6.45;;
7359;SDS011;3720;48.274;7.796;2023-06-04T00:37:42;11.27;;;6.47;;
7359;SDS011;3720;48.274;7.796;2023-06-04T00:40:15;11.45;;;6.50;;
7359;SDS011;3720;48.274;7.796;2023-06-04T00:42:47;7.70;;;6.10;;
7359;SDS011;3720;48.274;7.796;2023-06-04T00:45:19;8.45;;;5.90;;
7359;SDS011;3720;48.274;7.796;2023-06-04T00:47:51;10.52;;;6.15;;
7359;SDS011;3720;48.274;7.796;2023-06-04T00:50:23;9.75;;;6.28;;
7359;SDS011;3720;48.274;7.796;2023-06-04T00:52:56;9.98;;;6.20;;
7359;SDS011;3720;48.274;7.796;2023-06-04T00:55:29;10.82;;;5.90;;
7359;SDS011;3720;48.274;7.796;2023-06-04T00:58:01;9.55;;;5.85;;
7359;SDS011;3720;48.274;7.796;2023-06-04T01:00:34;8.50;;;6.38;;
7359;SDS011;3720;48.274;7.796;2023-06-04T01:03:07;10.85;;;6.18;;
7359;SDS011;3720;48.274;7.796;2023-06-04T01:05:47;10.15;;;5.90;;
7359;SDS011;3720;48.274;7.796;2023-06-04T01:08:22;8.55;;;5.78;;
7359;SDS011;3720;48.274;7.796;2023-06-04T01:10:57;8.35;;;5.68;;
7359;SDS011;3720;48.274;7.796;2023-06-04T01:13:29;10.68;;;5.57;;
7359;SDS011;3720;48.274;7.796;2023-06-04T01:16:01;9.00;;;5.95;;
7359;SDS011;3720;48.274;7.796;2023-06-04T01:18:34;9.85;;;5.82;;
7359;SDS011;3720;48.274;7.796;2023-06-04T01:21:08;10.70;;;5.88;;
7359;SDS011;3720;48.274;7.796;2023-06-04T01:23:45;8.43;;;5.68;;
7359;SDS011;3720;48.274;7.796;2023-06-04T01:26:30;7.70;;;5.40;;
7359;SDS011;3720;48.274;7.796;2023-06-04T01:29:02;9.38;;;5.70;;
7359;SDS011;3720;48.274;7.796;2023-06-04T01:31:35;9.15;;;5.90;;
7359;SDS011;3720;48.274;7.796;2023-06-04T01:34:08;10.40;;;5.63;;
7359;SDS011;3720;48.274;7.796;2023-06-04T01:36:40;9.95;;;5.88;;
7359;SDS011;3720;48.274;7.796;2023-06-04T01:39:11;7.82;;;5.20;;
7359;SDS011;3720;48.274;7.796;2023-06-04T01:41:45;9.80;;;5.72;;
7359;SDS011;3720;48.274;7.796;2023-06-04T01:44:17;8.63;;;5.32;;
7359;SDS011;3720;48.274;7.796;2023-06-04T01:46:49;8.32;;;5.68;;
7359;SDS011;3720;48.274;7.796;2023-06-04T01:49:20;8.95;;;5.82;;
7359;SDS011;3720;48.274;7.796;2023-06-04T01:51:52;9.02;;;5.80;;
7359;SDS011;3720;48.274;7.796;2023-06-04T01:54:26;10.90;;;5.43;;
7359;SDS011;3720;48.274;7.796;2023-06-04T01:57:01;8.73;;;5.63;;
7359;SDS011;3720;48.274;7.796;2023-06-04T01:59:33;9.52;;;5.80;;
7359;SDS011;3720;48.274;7.796;2023-06-04T02:02:06;8.27;;;5.60;;
7359;SDS011;3720;48.274;7.796;2023-06-04T02:04:39;8.23;;;5.40;;
7359;SDS011;3720;48.274;7.796;2023-06-04T02:07:12;7.47;;;5.05;;
7359;SDS011;3720;48.274;7.796;2023-06-04T02:09:47;10.75;;;5.40;;
7359;SDS011;3720;48.274;7.796;2023-06-04T02:12:21;9.07;;;5.50;;
7359;SDS011;3720;48.274;7.796;2023-06-04T02:14:53;9.88;;;5.53;;
7359;SDS011;3720;48.274;7.796;2023-06-04T02:17:24;7.53;;;5.00;;
7359;SDS011;3720;48.274;7.796;2023-06-04T02:19:56;6.38;;;4.70;;
7359;SDS011;3720;48.274;7.796;2023-06-04T02:22:31;7.28;;;5.00;;
7359;SDS011;3720;48.274;7.796;2023-06-04T02:25:03;10.45;;;5.15;;
7359;SDS011;3720;48.274;7.796;2023-06-04T02:27:37;7.78;;;4.88;;
7359;SDS011;3720;48.274;7.796;2023-06-04T02:30:09;8.07;;;4.80;;
7359;SDS011;3720;48.274;7.796;2023-06-04T02:32:41;8.75;;;4.90;;
7359;SDS011;3720;48.274;7.796;2023-06-04T02:35:14;7.03;;;4.70;;
7359;SDS011;3720;48.274;7.796;2023-06-04T02:37:46;7.55;;;4.97;;
7359;SDS011;3720;48.274;7.796;2023-06-04T02:40:18;9.98;;;5.38;;
7359;SDS011;3720;48.274;7.796;2023-06-04T02:42:51;8.57;;;4.90;;
7359;SDS011;3720;48.274;7.796;2023-06-04T02:45:24;7.47;;;5.20;;
7359;SDS011;3720;48.274;7.796;2023-06-04T02:47:56;8.52;;;4.70;;
7359;SDS011;3720;48.274;7.796;2023-06-04T02:50:28;9.48;;;4.68;;
7359;SDS011;3720;48.274;7.796;2023-06-04T02:53:00;7.32;;;4.13;;
7359;SDS011;3720;48.274;7.796;2023-06-04T02:55:32;7.22;;;4.22;;
7359;SDS011;3720;48.274;7.796;2023-06-04T02:58:05;6.57;;;3.88;;
7359;SDS011;3720;48.274;7.796;2023-06-04T03:00:38;7.18;;;4.18;;
7359;SDS011;3720;48.274;7.796;2023-06-04T03:03:10;7.32;;;4.05;;
7359;SDS011;3720;48.274;7.796;2023-06-04T03:05:42;7.25;;;4.30;;
7359;SDS011;3720;48.274;7.796;2023-06-04T03:08:14;6.45;;;4.10;;
7359;SDS011;3720;48.274;7.796;2023-06-04T03:10:47;6.30;;;3.60;;
7359;SDS011;3720;48.274;7.796;2023-06-04T03:13:20;6.60;;;3.55;;
7359;SDS011;3720;48.274;7.796;2023-06-04T03:15:52;8.20;;;3.88;;
7359;SDS011;3720;48.274;7.796;2023-06-04T03:18:25;7.82;;;3.83;;
7359;SDS011;3720;48.274;7.796;2023-06-04T03:20:57;8.13;;;3.70;;
7359;SDS011;3720;48.274;7.796;2023-06-04T03:23:29;6.80;;;4.00;;
7359;SDS011;3720;48.274;7.796;2023-06-04T03:26:02;7.07;;;3.70;;
7359;SDS011;3720;48.274;7.796;2023-06-04T03:28:36;6.75;;;3.47;;
7359;SDS011;3720;48.274;7.796;2023-06-04T03:31:08;7.55;;;4.13;;
7359;SDS011;3720;48.274;7.796;2023-06-04T03:33:40;6.97;;;3.80;;
7359;SDS011;3720;48.274;7.796;2023-06-04T03:36:12;5.90;;;3.80;;
7359;SDS011;3720;48.274;7.796;2023-06-04T03:38:45;5.65;;;3.50;;
7359;SDS011;3720;48.274;7.796;2023-06-04T03:41:17;5.60;;;3.25;;
7359;SDS011;3720;48.274;7.796;2023-06-04T03:43:50;5.90;;;3.50;;
7359;SDS011;3720;48.274;7.796;2023-06-04T03:46:22;4.55;;;3.50;;
7359;SDS011;3720;48.274;7.796;2023-06-04T03:48:56;7.18;;;3.30;;
7359;SDS011;3720;48.274;7.796;2023-06-04T03:51:28;5.43;;;3.53;;
7359;SDS011;3720;48.274;7.796;2023-06-04T03:54:00;6.03;;;3.28;;
7359;SDS011;3720;48.274;7.796;2023-06-04T03:56:32;5.07;;;3.30;;
7359;SDS011;3720;48.274;7.796;2023-06-04T03:59:06;6.38;;;3.20;;
7359;SDS011;3720;48.274;7.796;2023-06-04T04:01:38;6.70;;;3.53;;
7359;SDS011;3720;48.274;7.796;2023-06-04T04:04:10;7.60;;;3.53;;
7359;SDS011;3720;48.274;7.796;2023-06-04T04:06:42;5.53;;;3.40;;
7359;SDS011;3720;48.274;7.796;2023-06-04T04:09:14;5.95;;;3.10;;
7359;SDS011;3720;48.274;7.796;2023-06-04T04:11:46;6.07;;;3.40;;
7359;SDS011;3720;48.274;7.796;2023-06-04T04:14:19;6.07;;;3.20;;
7359;SDS011;3720;48.274;7.796;2023-06-04T04:16:51;8.70;;;3.47;;
7359;SDS011;3720;48.274;7.796;2023-06-04T04:19:23;4.28;;;3.20;;
7359;SDS011;3720;48.274;7.796;2023-06-04T04:21:54;4.57;;;3.00;;
7359;SDS011;3720;48.274;7.796;2023-06-04T04:24:27;5.13;;;3.17;;
7359;SDS011;3720;48.274;7.796;2023-06-04T04:26:59;9.27;;;3.50;;
7359;SDS011;3720;48.274;7.796;2023-06-04T04:29:35;8.55;;;3.38;;
7359;SDS011;3720;48.274;7.796;2023-06-04T04:32:07;8.35;;;3.15;;
7359;SDS011;3720;48.274;7.796;2023-06-04T04:34:49;5.50;;;3.20;;
7359;SDS011;3720;48.274;7.796;2023-06-04T04:37:23;4.10;;;3.22;;
7359;SDS011;3720;48.274;7.796;2023-06-04T04:39:56;4.93;;;3.17;;
7359;SDS011;3720;48.274;7.796;2023-06-04T04:42:28;5.85;;;3.17;;
7359;SDS011;3720;48.274;7.796;2023-06-04T04:45:01;6.85;;;3.40;;
7359;SDS011;3720;48.274;7.796;2023-06-04T04:47:33;3.90;;;2.88;;
7359;SDS011;3720;48.274;7.796;2023-06-04T04:50:05;6.00;;;3.03;;
7359;SDS011;3720;48.274;7.796;2023-06-04T04:52:38;7.20;;;3.10;;
7359;SDS011;3720;48.274;7.796;2023-06-04T04:55:10;5.15;;;3.03;;
7359;SDS011;3720;48.274;7.796;2023-06-04T04:57:43;7.20;;;3.50;;
7359;SDS011;3720;48.274;7.796;2023-06-04T05:00:16;5.70;;;3.10;;
7359;SDS011;3720;48.274;7.796;2023-06-04T05:02:49;6.75;;;3.35;;
7359;SDS011;3720;48.274;7.796;2023-06-04T05:05:21;4.50;;;3.05;;
7359;SDS011;3720;48.274;7.796;2023-06-04T05:07:53;6.75;;;3.08;;
7359;SDS011;3720;48.274;7.796;2023-06-04T05:10:24;6.00;;;2.95;;
7359;SDS011;3720;48.274;7.796;2023-06-04T05:12:57;5.60;;;3.13;;
7359;SDS011;3720;48.274;7.796;2023-06-04T05:15:32;3.63;;;2.90;;
7359;SDS011;3720;48.274;7.796;2023-06-04T05:18:03;4.75;;;3.00;;
7359;SDS011;3720;48.274;7.796;2023-06-04T05:20:35;6.75;;;3.25;;
7359;SDS011;3720;48.274;7.796;2023-06-04T05:23:07;5.50;;;3.13;;
7359;SDS011;3720;48.274;7.796;2023-06-04T05:25:42;3.88;;;2.92;;
7359;SDS011;3720;48.274;7.796;2023-06-04T05:28:14;6.82;;;3.00;;
7359;SDS011;3720;48.274;7.796;2023-06-04T05:30:47;6.63;;;3.00;;
7359;SDS011;3720;48.274;7.796;2023-06-04T05:33:19;5.22;;;3.08;;
7359;SDS011;3720;48.274;7.796;2023-06-04T05:35:51;7.28;;;2.92;;
7359;SDS011;3720;48.274;7.796;2023-06-04T05:38:24;7.60;;;3.28;;
7359;SDS011;3720;48.274;7.796;2023-06-04T05:40:57;6.75;;;3.10;;
7359;SDS011;3720;48.274;7.796;2023-06-04T05:43:28;5.90;;;2.95;;
7359;SDS011;3720;48.274;7.796;2023-06-04T05:46:02;6.00;;;2.72;;
7359;SDS011;3720;48.274;7.796;2023-06-04T05:48:34;5.20;;;2.72;;
7359;SDS011;3720;48.274;7.796;2023-06-04T05:51:05;5.63;;;2.90;;
7359;SDS011;3720;48.274;7.796;2023-06-04T05:53:38;5.00;;;2.85;;
7359;SDS011;3720;48.274;7.796;2023-06-04T05:56:09;6.35;;;2.90;;
7359;SDS011;3720;48.274;7.796;2023-06-04T05:58:41;10.90;;;3.17;;
7359;SDS011;3720;48.274;7.796;2023-06-04T06:01:15;4.63;;;2.90;;
7359;SDS011;3720;48.274;7.796;2023-06-04T06:03:47;7.38;;;3.13;;
7359;SDS011;3720;48.274;7.796;2023-06-04T06:06:18;6.55;;;2.70;;
7359;SDS011;3720;48.274;7.796;2023-06-04T06:08:51;5.75;;;2.75;;
7359;SDS011;3720;48.274;7.796;2023-06-04T06:11:23;6.05;;;2.95;;
7359;SDS011;3720;48.274;7.796;2023-06-04T06:13:56;4.85;;;2.80;;
7359;SDS011;3720;48.274;7.796;2023-06-04T06:16:30;8.13;;;3.17;;
7359;SDS011;3720;48.274;7.796;2023-06-04T06:19:02;6.93;;;3.20;;
7359;SDS011;3720;48.274;7.796;2023-06-04T06:21:35;6.03;;;2.85;;
7359;SDS011;3720;48.274;7.796;2023-06-04T06:24:07;6.93;;;2.88;;
7359;SDS011;3720;48.274;7.796;2023-06-04T06:26:39;4.93;;;2.90;;
7359;SDS011;3720;48.274;7.796;2023-06-04T06:29:11;6.43;;;2.92;;
7359;SDS011;3720;48.274;7.796;2023-06-04T06:31:44;4.93;;;2.63;;
7359;SDS011;3720;48.274;7.796;2023-06-04T06:34:16;5.47;;;2.83;;
7359;SDS011;3720;48.274;7.796;2023-06-04T06:36:48;5.55;;;2.70;;
7359;SDS011;3720;48.274;7.796;2023-06-04T06:39:20;6.45;;;2.80;;
7359;SDS011;3720;48.274;7.796;2023-06-04T06:41:52;5.30;;;2.67;;
7359;SDS011;3720;48.274;7.796;2023-06-04T06:44:24;4.25;;;2.80;;
7359;SDS011;3720;48.274;7.796;2023-06-04T06:46:57;5.20;;;2.90;;
7359;SDS011;3720;48.274;7.796;2023-06-04T06:49:29;5.05;;;2.63;;
7359;SDS011;3720;48.274;7.796;2023-06-04T06:52:01;3.95;;;2.70;;
7359;SDS011;3720;48.274;7.796;2023-06-04T06:54:33;3.65;;;2.60;;
7359;SDS011;3720;48.274;7.796;2023-06-04T06:57:05;8.27;;;2.95;;
7359;SDS011;3720;48.274;7.796;2023-06-04T06:59:38;3.13;;;2.50;;
7359;SDS011;3720;48.274;7.796;2023-06-04T07:02:12;5.15;;;2.70;;
7359;SDS011;3720;48.274;7.796;2023-06-04T07:04:44;5.25;;;2.70;;
7359;SDS011;3720;48.274;7.796;2023-06-04T07:07:16;3.65;;;2.50;;
7359;SDS011;3720;48.274;7.796;2023-06-04T07:09:48;5.45;;;2.88;;
7359;SDS011;3720;48.274;7.796;2023-06-04T07:12:21;8.73;;;2.75;;
7359;SDS011;3720;48.274;7.796;2023-06-04T07:14:52;5.55;;;2.53;;
7359;SDS011;3720;48.274;7.796;2023-06-04T07:17:26;5.05;;;2.60;;
7359;SDS011;3720;48.274;7.796;2023-06-04T07:19:58;7.03;;;2.85;;
7359;SDS011;3720;48.274;7.796;2023-06-04T07:22:30;4.45;;;2.40;;
7359;SDS011;3720;48.274;7.796;2023-06-04T07:25:02;7.18;;;2.60;;
7359;SDS011;3720;48.274;7.796;2023-06-04T07:27:34;6.30;;;3.13;;
7359;SDS011;3720;48.274;7.796;2023-06-04T07:30:06;5.65;;;2.70;;
7359;SDS011;3720;48.274;7.796;2023-06-04T07:32:45;7.45;;;2.40;;
7359;SDS011;3720;48.274;7.796;2023-06-04T07:35:17;5.95;;;2.78;;
7359;SDS011;3720;48.274;7.796;2023-06-04T07:37:49;7.13;;;3.00;;
7359;SDS011;3720;48.274;7.796;2023-06-04T07:40:21;7.25;;;2.75;;
7359;SDS011;3720;48.274;7.796;2023-06-04T07:42:54;5.10;;;2.88;;
7359;SDS011;3720;48.274;7.796;2023-06-04T07:45:26;6.90;;;2.90;;
7359;SDS011;3720;48.274;7.796;2023-06-04T07:48:01;17.05;;;3.83;;
7359;SDS011;3720;48.274;7.796;2023-06-04T07:50:33;14.60;;;3.70;;
7359;SDS011;3720;48.274;7.796;2023-06-04T07:53:04;10.18;;;3.58;;
7359;SDS011;3720;48.274;7.796;2023-06-04T07:55:36;6.13;;;3.17;;
7359;SDS011;3720;48.274;7.796;2023-06-04T07:58:08;10.30;;;3.58;;
7359;SDS011;3720;48.274;7.796;2023-06-04T08:00:40;7.00;;;3.38;;
7359;SDS011;3720;48.274;7.796;2023-06-04T08:03:14;8.27;;;4.03;;
7359;SDS011;3720;48.274;7.796;2023-06-04T08:05:46;9.05;;;3.90;;
7359;SDS011;3720;48.274;7.796;2023-06-04T08:08:18;8.75;;;3.70;;
7359;SDS011;3720;48.274;7.796;2023-06-04T08:10:50;7.15;;;3.40;;
7359;SDS011;3720;48.274;7.796;2023-06-04T08:13:22;8.15;;;4.00;;
7359;SDS011;3720;48.274;7.796;2023-06-04T08:15:53;9.43;;;3.70;;
7359;SDS011;3720;48.274;7.796;2023-06-04T08:18:27;9.60;;;3.55;;
7359;SDS011;3720;48.274;7.796;2023-06-04T08:20:59;6.78;;;4.30;;
7359;SDS011;3720;48.274;7.796;2023-06-04T08:23:31;5.20;;;3.55;;
7359;SDS011;3720;48.274;7.796;2023-06-04T08:26:03;10.48;;;3.95;;
7359;SDS011;3720;48.274;7.796;2023-06-04T08:28:34;7.43;;;4.22;;
7359;SDS011;3720;48.274;7.796;2023-06-04T08:31:08;8.52;;;4.38;;
7359;SDS011;3720;48.274;7.796;2023-06-04T08:33:42;8.90;;;4.18;;
7359;SDS011;3720;48.274;7.796;2023-06-04T08:36:13;10.70;;;4.35;;
7359;SDS011;3720;48.274;7.796;2023-06-04T08:38:46;10.55;;;4.30;;
7359;SDS011;3720;48.274;7.796;2023-06-04T08:41:22;7.43;;;3.90;;
7359;SDS011;3720;48.274;7.796;2023-06-04T08:43:59;8.15;;;4.38;;
7359;SDS011;3720;48.274;7.796;2023-06-04T08:46:32;6.25;;;4.22;;
7359;SDS011;3720;48.274;7.796;2023-06-04T08:49:07;8.45;;;4.20;;
7359;SDS011;3720;48.274;7.796;2023-06-04T08:51:40;8.52;;;4.60;;
7359;SDS011;3720;48.274;7.796;2023-06-04T08:54:12;7.43;;;4.00;;
7359;SDS011;3720;48.274;7.796;2023-06-04T08:56:45;8.70;;;4.60;;
7359;SDS011;3720;48.274;7.796;2023-06-04T08:59:18;9.77;;;4.82;;
7359;SDS011;3720;48.274;7.796;2023-06-04T09:01:51;7.60;;;4.90;;
7359;SDS011;3720;48.274;7.796;2023-06-04T09:04:25;9.00;;;4.80;;
7359;SDS011;3720;48.274;7.796;2023-06-04T09:06:58;7.00;;;4.68;;
7359;SDS011;3720;48.274;7.796;2023-06-04T09:09:33;9.60;;;4.55;;
7359;SDS011;3720;48.274;7.796;2023-06-04T09:12:09;6.63;;;4.47;;
7359;SDS011;3720;48.274;7.796;2023-06-04T09:14:42;6.80;;;4.78;;
7359;SDS011;3720;48.274;7.796;2023-06-04T09:17:15;9.05;;;5.00;;
7359;SDS011;3720;48.274;7.796;2023-06-04T09:19:53;7.43;;;4.65;;
7359;SDS011;3720;48.274;7.796;2023-06-04T09:22:31;7.85;;;4.90;;
7359;SDS011;3720;48.274;7.796;2023-06-04T09:25:04;6.47;;;4.28;;
7359;SDS011;3720;48.274;7.796;2023-06-04T09:27:38;9.38;;;4.93;;
7359;SDS011;3720;48.274;7.796;2023-06-04T09:30:11;9.50;;;4.80;;
7359;SDS011;3720;48.274;7.796;2023-06-04T09:35:21;8.48;;;4.50;;
7359;SDS011;3720;48.274;7.796;2023-06-04T09:37:53;8.35;;;4.80;;
7359;SDS011;3720;48.274;7.796;2023-06-04T09:40:34;7.18;;;4.40;;
7359;SDS011;3720;48.274;7.796;2023-06-04T09:43:07;8.27;;;4.63;;
7359;SDS011;3720;48.274;7.796;2023-06-04T09:45:42;7.70;;;4.03;;
7359;SDS011;3720;48.274;7.796;2023-06-04T09:48:18;7.78;;;4.53;;
7359;SDS011;3720;48.274;7.796;2023-06-04T09:50:52;6.97;;;4.38;;
7359;SDS011;3720;48.274;7.796;2023-06-04T09:53:24;9.25;;;4.97;;
7359;SDS011;3720;48.274;7.796;2023-06-04T09:55:58;8.05;;;4.25;;
7359;SDS011;3720;48.274;7.796;2023-06-04T09:58:31;7.72;;;4.50;;
7359;SDS011;3720;48.274;7.796;2023-06-04T10:01:04;7.95;;;4.47;;
7359;SDS011;3720;48.274;7.796;2023-06-04T10:03:37;9.93;;;4.97;;
7359;SDS011;3720;48.274;7.796;2023-06-04T10:06:15;6.28;;;3.92;;
7359;SDS011;3720;48.274;7.796;2023-06-04T10:08:49;11.23;;;4.90;;
7359;SDS011;3720;48.274;7.796;2023-06-04T10:11:22;5.78;;;4.00;;
7359;SDS011;3720;48.274;7.796;2023-06-04T10:14:00;8.63;;;4.82;;
7359;SDS011;3720;48.274;7.796;2023-06-04T10:16:36;11.38;;;5.05;;
7359;SDS011;3720;48.274;7.796;2023-06-04T10:19:10;8.88;;;5.20;;
7359;SDS011;3720;48.274;7.796;2023-06-04T10:21:45;8.35;;;4.90;;
7359;SDS011;3720;48.274;7.796;2023-06-04T10:24:17;10.43;;;5.15;;
7359;SDS011;3720;48.274;7.796;2023-06-04T10:26:51;10.80;;;4.95;;
7359;SDS011;3720;48.274;7.796;2023-06-04T10:29:25;7.70;;;5.18;;
7359;SDS011;3720;48.274;7.796;2023-06-04T10:31:57;8.73;;;5.78;;
7359;SDS011;3720;48.274;7.796;2023-06-04T10:34:29;10.25;;;5.70;;
7359;SDS011;3720;48.274;7.796;2023-06-04T10:37:03;9.80;;;4.90;;
7359;SDS011;3720;48.274;7.796;2023-06-04T10:39:35;10.90;;;5.25;;
7359;SDS011;3720;48.274;7.796;2023-06-04T10:42:08;8.95;;;4.95;;
7359;SDS011;3720;48.274;7.796;2023-06-04T10:44:45;11.35;;;5.68;;
7359;SDS011;3720;48.274;7.796;2023-06-04T10:47:18;9.82;;;5.50;;
7359;SDS011;3720;48.274;7.796;2023-06-04T10:49:52;9.05;;;4.78;;
7359;SDS011;3720;48.274;7.796;2023-06-04T10:52:27;7.47;;;5.30;;
7359;SDS011;3720;48.274;7.796;2023-06-04T10:55:03;8.63;;;5.25;;
7359;SDS011;3720;48.274;7.796;2023-06-04T10:57:36;8.02;;;4.13;;
7359;SDS011;3720;48.274;7.796;2023-06-04T11:00:09;6.85;;;4.90;;
7359;SDS011;3720;48.274;7.796;2023-06-04T11:02:49;6.63;;;4.55;;
7359;SDS011;3720;48.274;7.796;2023-06-04T11:05:22;12.05;;;4.82;;
7359;SDS011;3720;48.274;7.796;2023-06-04T11:08:07;6.97;;;4.35;;
7359;SDS011;3720;48.274;7.796;2023-06-04T11:10:40;7.75;;;4.72;;
7359;SDS011;3720;48.274;7.796;2023-06-04T11:13:14;9.80;;;5.25;;
7359;SDS011;3720;48.274;7.796;2023-06-04T11:15:46;9.07;;;4.82;;
7359;SDS011;3720;48.274;7.796;2023-06-04T11:18:19;10.32;;;5.30;;
7359;SDS011;3720;48.274;7.796;2023-06-04T11:20:58;11.35;;;5.72;;
7359;SDS011;3720;48.274;7.796;2023-06-04T11:23:32;7.63;;;5.03;;
7359;SDS011;3720;48.274;7.796;2023-06-04T11:26:04;7.63;;;5.10;;
7359;SDS011;3720;48.274;7.796;2023-06-04T11:28:37;7.60;;;5.80;;
7359;SDS011;3720;48.274;7.796;2023-06-04T11:31:10;7.82;;;5.05;;
7359;SDS011;3720;48.274;7.796;2023-06-04T11:33:43;8.23;;;5.38;;
7359;SDS011;3720;48.274;7.796;2023-06-04T11:36:22;7.57;;;4.60;;
7359;SDS011;3720;48.274;7.796;2023-06-04T11:38:57;6.18;;;4.88;;
7359;SDS011;3720;48.274;7.796;2023-06-04T11:41:30;6.40;;;5.00;;
7359;SDS011;3720;48.274;7.796;2023-06-04T11:44:03;8.05;;;5.68;;
7359;SDS011;3720;48.274;7.796;2023-06-04T11:46:39;10.02;;;5.78;;
7359;SDS011;3720;48.274;7.796;2023-06-04T11:49:11;8.95;;;5.20;;
7359;SDS011;3720;48.274;7.796;2023-06-04T11:51:46;7.72;;;5.38;;
7359;SDS011;3720;48.274;7.796;2023-06-04T11:54:20;8.93;;;5.65;;
7359;SDS011;3720;48.274;7.796;2023-06-04T11:56:52;10.02;;;5.70;;
7359;SDS011;3720;48.274;7.796;2023-06-04T11:59:25;7.03;;;5.22;;
7359;SDS011;3720;48.274;7.796;2023-06-04T12:01:57;8.18;;;5.40;;
7359;SDS011;3720;48.274;7.796;2023-06-04T12:04:30;8.68;;;6.05;;
7359;SDS011;3720;48.274;7.796;2023-06-04T12:07:02;7.90;;;5.50;;
7359;SDS011;3720;48.274;7.796;2023-06-04T12:09:37;11.93;;;5.63;;
7359;SDS011;3720;48.274;7.796;2023-06-04T12:12:09;10.02;;;5.53;;
7359;SDS011;3720;48.274;7.796;2023-06-04T12:14:42;7.30;;;5.30;;
7359;SDS011;3720;48.274;7.796;2023-06-04T12:17:15;11.38;;;5.85;;
7359;SDS011;3720;48.274;7.796;2023-06-04T12:19:47;8.77;;;5.18;;
7359;SDS011;3720;48.274;7.796;2023-06-04T12:22:19;8.60;;;5.45;;
7359;SDS011;3720;48.274;7.796;2023-06-04T12:24:53;6.82;;;5.00;;
7359;SDS011;3720;48.274;7.796;2023-06-04T12:27:26;7.72;;;4.95;;
7359;SDS011;3720;48.274;7.796;2023-06-04T12:29:58;4.63;;;3.95;;
7359;SDS011;3720;48.274;7.796;2023-06-04T12:32:34;5.97;;;4.43;;
7359;SDS011;3720;48.274;7.796;2023-06-04T12:35:07;9.25;;;5.10;;
7359;SDS011;3720;48.274;7.796;2023-06-04T12:37:39;7.53;;;5.15;;
7359;SDS011;3720;48.274;7.796;2023-06-04T12:40:13;7.65;;;4.80;;
7359;SDS011;3720;48.274;7.796;2023-06-04T12:42:45;6.72;;;4.13;;
7359;SDS011;3720;48.274;7.796;2023-06-04T12:45:17;4.78;;;4.03;;
7359;SDS011;3720;48.274;7.796;2023-06-04T12:47:49;4.88;;;3.65;;
7359;SDS011;3720;48.274;7.796;2023-06-04T12:50:21;5.80;;;3.85;;
7359;SDS011;3720;48.274;7.796;2023-06-04T12:52:53;8.63;;;4.65;;
7359;SDS011;3720;48.274;7.796;2023-06-04T12:55:26;6.20;;;4.00;;
7359;SDS011;3720;48.274;7.796;2023-06-04T12:57:58;8.57;;;4.35;;
7359;SDS011;3720;48.274;7.796;2023-06-04T13:00:31;5.22;;;3.92;;
7359;SDS011;3720;48.274;7.796;2023-06-04T13:03:03;6.40;;;3.90;;
7359;SDS011;3720;48.274;7.796;2023-06-04T13:05:36;5.95;;;4.20;;
7359;SDS011;3720;48.274;7.796;2023-06-04T13:08:08;7.63;;;3.78;;
7359;SDS011;3720;48.274;7.796;2023-06-04T13:10:41;6.55;;;3.97;;
7359;SDS011;3720;48.274;7.796;2023-06-04T13:13:13;5.47;;;4.00;;
7359;SDS011;3720;48.274;7.796;2023-06-04T13:15:45;5.40;;;3.97;;
7359;SDS011;3720;48.274;7.796;2023-06-04T13:18:17;4.75;;;3.60;;
7359;SDS011;3720;48.274;7.796;2023-06-04T13:20:49;7.97;;;3.80;;
7359;SDS011;3720;48.274;7.796;2023-06-04T13:23:22;5.97;;;3.75;;
7359;SDS011;3720;48.274;7.796;2023-06-04T13:25:55;6.80;;;3.85;;
7359;SDS011;3720;48.274;7.796;2023-06-04T13:28:27;7.35;;;3.78;;
7359;SDS011;3720;48.274;7.796;2023-06-04T13:31:00;4.53;;;3.90;;
7359;SDS011;3720;48.274;7.796;2023-06-04T13:33:32;5.97;;;3.72;;
7359;SDS011;3720;48.274;7.796;2023-06-04T13:36:14;4.25;;;3.67;;
7359;SDS011;3720;48.274;7.796;2023-06-04T13:38:46;6.68;;;3.72;;
7359;SDS011;3720;48.274;7.796;2023-06-04T13:41:19;6.47;;;3.45;;
7359;SDS011;3720;48.274;7.796;2023-06-04T13:43:52;6.07;;;3.80;;
7359;SDS011;3720;48.274;7.796;2023-06-04T13:46:23;6.43;;;3.60;;
7359;SDS011;3720;48.274;7.796;2023-06-04T13:48:55;7.13;;;3.70;;
7359;SDS011;3720;48.274;7.796;2023-06-04T13:51:27;6.22;;;3.80;;
7359;SDS011;3720;48.274;7.796;2023-06-04T13:54:00;4.38;;;3.55;;
7359;SDS011;3720;48.274;7.796;2023-06-04T13:56:33;7.30;;;3.80;;
7359;SDS011;3720;48.274;7.796;2023-06-04T13:59:05;5.40;;;3.58;;
7359;SDS011;3720;48.274;7.796;2023-06-04T14:01:37;4.72;;;3.60;;
7359;SDS011;3720;48.274;7.796;2023-06-04T14:04:09;6.43;;;3.70;;
7359;SDS011;3720;48.274;7.796;2023-06-04T14:06:41;7.80;;;4.93;;
7359;SDS011;3720;48.274;7.796;2023-06-04T14:09:14;7.55;;;4.22;;
7359;SDS011;3720;48.274;7.796;2023-06-04T14:11:47;5.82;;;3.70;;
7359;SDS011;3720;48.274;7.796;2023-06-04T14:14:21;4.05;;;3.30;;
7359;SDS011;3720;48.274;7.796;2023-06-04T14:16:53;4.32;;;3.40;;
7359;SDS011;3720;48.274;7.796;2023-06-04T14:19:25;5.55;;;3.40;;
7359;SDS011;3720;48.274;7.796;2023-06-04T14:21:58;5.45;;;3.45;;
7359;SDS011;3720;48.274;7.796;2023-06-04T14:24:29;5.30;;;3.85;;
7359;SDS011;3720;48.274;7.796;2023-06-04T14:27:03;7.53;;;3.80;;
7359;SDS011;3720;48.274;7.796;2023-06-04T14:29:36;5.93;;;3.28;;
7359;SDS011;3720;48.274;7.796;2023-06-04T14:32:08;6.22;;;3.30;;
7359;SDS011;3720;48.274;7.796;2023-06-04T14:34:40;5.75;;;3.22;;
7359;SDS011;3720;48.274;7.796;2023-06-04T14:37:12;6.35;;;3.17;;
7359;SDS011;3720;48.274;7.796;2023-06-04T14:39:44;7.57;;;3.25;;
7359;SDS011;3720;48.274;7.796;2023-06-04T14:42:17;4.47;;;3.40;;
7359;SDS011;3720;48.274;7.796;2023-06-04T14:44:49;5.13;;;3.40;;
7359;SDS011;3720;48.274;7.796;2023-06-04T14:47:21;5.43;;;3.80;;
7359;SDS011;3720;48.274;7.796;2023-06-04T14:49:53;4.57;;;3.10;;
7359;SDS011;3720;48.274;7.796;2023-06-04T14:52:25;5.32;;;3.10;;
7359;SDS011;3720;48.274;7.796;2023-06-04T14:54:58;8.20;;;3.45;;
7359;SDS011;3720;48.274;7.796;2023-06-04T14:57:31;6.35;;;3.33;;
7359;SDS011;3720;48.274;7.796;2023-06-04T15:00:04;4.32;;;3.20;;
7359;SDS011;3720;48.274;7.796;2023-06-04T15:02:38;5.82;;;3.17;;
7359;SDS011;3720;48.274;7.796;2023-06-04T15:05:10;6.38;;;3.38;;
7359;SDS011;3720;48.274;7.796;2023-06-04T15:07:41;5.72;;;3.20;;
7359;SDS011;3720;48.274;7.796;2023-06-04T15:10:13;5.30;;;3.30;;
7359;SDS011;3720;48.274;7.796;2023-06-04T15:12:47;6.97;;;3.17;;
7359;SDS011;3720;48.274;7.796;2023-06-04T15:15:18;5.00;;;3.60;;
7359;SDS011;3720;48.274;7.796;2023-06-04T15:17:51;3.65;;;3.20;;
7359;SDS011;3720;48.274;7.796;2023-06-04T15:20:23;6.28;;;3.63;;
7359;SDS011;3720;48.274;7.796;2023-06-04T15:22:57;5.82;;;3.60;;
7359;SDS011;3720;48.274;7.796;2023-06-04T15:25:29;4.90;;;3.65;;
7359;SDS011;3720;48.274;7.796;2023-06-04T15:28:02;9.00;;;3.75;;
7359;SDS011;3720;48.274;7.796;2023-06-04T15:30:35;5.70;;;3.20;;
7359;SDS011;3720;48.274;7.796;2023-06-04T15:33:06;5.55;;;3.30;;
7359;SDS011;3720;48.274;7.796;2023-06-04T15:35:39;5.80;;;3.40;;
7359;SDS011;3720;48.274;7.796;2023-06-04T15:38:10;5.38;;;3.55;;
7359;SDS011;3720;48.274;7.796;2023-06-04T15:40:43;5.55;;;3.25;;
7359;SDS011;3720;48.274;7.796;2023-06-04T15:43:16;4.85;;;3.50;;
7359;SDS011;3720;48.274;7.796;2023-06-04T15:45:48;5.55;;;3.50;;
7359;SDS011;3720;48.274;7.796;2023-06-04T15:48:20;5.60;;;3.33;;
7359;SDS011;3720;48.274;7.796;2023-06-04T15:50:52;6.05;;;3.42;;
7359;SDS011;3720;48.274;7.796;2023-06-04T15:53:24;6.40;;;4.10;;